createdAt,value
2019-03-25T00:02:25.002Z,99565.38
2019-03-25T00:04:53.695Z,99568.16
2019-03-25T00:07:21.330Z,99571.24
2019-03-25T00:09:48.732Z,99561.25
2019-03-25T00:12:16.019Z,99565.03
2019-03-25T00:14:43.319Z,99557.02
2019-03-25T00:17:10.802Z,99562.87
2019-03-25T00:19:38.166Z,99565.72
2019-03-25T00:22:05.495Z,99563.87
2019-03-25T00:24:38.948Z,99569.42
2019-03-25T00:27:04.867Z,99569.42
2019-03-25T00:29:32.264Z,99569.58
2019-03-25T00:31:59.942Z,99558.19
2019-03-25T00:34:27.246Z,99556.30
2019-03-25T00:36:59.400Z,99549.47
2019-03-25T00:39:26.684Z,99549.81
2019-03-25T00:41:53.971Z,99541.86
2019-03-25T00:44:21.342Z,99545.23
2019-03-25T00:46:48.859Z,99545.23
2019-03-25T00:49:22.109Z,99540.21
2019-03-25T00:51:49.415Z,99542.74
2019-03-25T00:54:16.786Z,99540.48
2019-03-25T00:56:44.082Z,99531.23
2019-03-25T00:59:11.482Z,99523.94
2019-03-25T01:01:38.744Z,99527.45
2019-03-25T01:04:06.220Z,99532.05
2019-03-25T01:06:33.468Z,99533.88
2019-03-25T01:09:01.175Z,99533.22
2019-03-25T01:11:28.862Z,99536.27
2019-03-25T01:13:56.330Z,99536.27
2019-03-25T01:16:23.750Z,99527.35
2019-03-25T01:18:53.052Z,99533.89
2019-03-25T01:21:22.682Z,99530.19
2019-03-25T01:23:50.084Z,99530.19
2019-03-25T01:26:17.365Z,99529.73
2019-03-25T01:28:44.663Z,99533.24
2019-03-25T01:31:15.268Z,99534.44
2019-03-25T01:33:42.739Z,99534.44
2019-03-25T01:36:10.220Z,99526.87
2019-03-25T01:38:37.499Z,99528.60
2019-03-25T01:41:05.305Z,99523.63
2019-03-25T01:43:32.599Z,99523.63
2019-03-25T01:46:00.012Z,99513.37
2019-03-25T01:48:27.395Z,99507.38
2019-03-25T01:50:54.657Z,99511.09
2019-03-25T01:53:23.876Z,99511.09
2019-03-25T01:55:51.162Z,99505.70
2019-03-25T01:58:18.559Z,99506.28
2019-03-25T02:00:48.228Z,99508.97
2019-03-25T02:03:15.478Z,99512.87
2019-03-25T02:05:43.254Z,99512.87
2019-03-25T02:08:12.960Z,99512.00
2019-03-25T02:10:40.624Z,99512.00
2019-03-25T02:13:07.904Z,99510.62
2019-03-25T02:15:35.640Z,99510.62
2019-03-25T02:18:02.971Z,99522.53
2019-03-25T02:20:32.579Z,99522.53
2019-03-25T02:23:00.050Z,99514.44
2019-03-25T02:25:27.616Z,99501.98
2019-03-25T02:27:55.038Z,99501.98
2019-03-25T02:30:22.328Z,99501.91
2019-03-25T02:32:49.593Z,99501.91
2019-03-25T02:35:17.340Z,99503.39
2019-03-25T02:37:45.009Z,99500.05
2019-03-25T02:40:12.312Z,99500.72
2019-03-25T02:42:39.726Z,99497.23
2019-03-25T02:45:07.020Z,99497.23
2019-03-25T02:47:34.742Z,99514.39
2019-03-25T02:50:02.048Z,99496.44
2019-03-25T02:52:29.403Z,99488.35
2019-03-25T02:54:56.700Z,99499.20
2019-03-25T02:57:24.313Z,99501.34
2019-03-25T02:59:51.575Z,99487.45
2019-03-25T03:02:18.955Z,99489.05
2019-03-25T03:04:46.277Z,99487.55
2019-03-25T03:07:13.539Z,99487.55
2019-03-25T03:09:44.356Z,99481.13
2019-03-25T03:12:11.600Z,99485.34
2019-03-25T03:14:38.920Z,99481.97
2019-03-25T03:17:06.232Z,99481.23
2019-03-25T03:19:33.489Z,99475.81
2019-03-25T03:22:00.772Z,99469.52
2019-03-25T03:24:28.263Z,99476.24
2019-03-25T03:26:55.676Z,99473.10
2019-03-25T03:29:23.336Z,99473.10
2019-03-25T03:31:51.746Z,99467.50
2019-03-25T03:34:19.008Z,99479.98
2019-03-25T03:36:46.358Z,99463.48
2019-03-25T03:39:13.638Z,99468.98
2019-03-25T03:41:40.927Z,99468.98
2019-03-25T03:44:08.224Z,99475.20
2019-03-25T03:46:35.554Z,99467.06
2019-03-25T03:49:02.891Z,99459.69
2019-03-25T03:51:30.566Z,99466.34
2019-03-25T03:53:57.904Z,99472.30
2019-03-25T03:56:25.221Z,99462.94
2019-03-25T03:58:52.522Z,99454.98
2019-03-25T04:01:22.017Z,99454.98
2019-03-25T04:03:49.384Z,99459.62
2019-03-25T04:06:16.680Z,99456.09
2019-03-25T04:08:43.987Z,99452.69
2019-03-25T04:11:11.283Z,99452.84
2019-03-25T04:13:40.238Z,99454.45
2019-03-25T04:16:07.650Z,99457.48
2019-03-25T04:18:35.099Z,99452.73
2019-03-25T04:21:02.434Z,99460.61
2019-03-25T04:23:29.948Z,99457.42
2019-03-25T04:25:57.346Z,99457.42
2019-03-25T04:28:24.627Z,99455.13
2019-03-25T04:30:51.985Z,99454.02
2019-03-25T04:33:19.383Z,99451.97
2019-03-25T04:35:46.861Z,99452.84
2019-03-25T04:38:14.183Z,99451.30
2019-03-25T04:40:41.572Z,99446.00
2019-03-25T04:43:10.985Z,99440.79
2019-03-25T04:45:38.384Z,99437.81
2019-03-25T04:48:05.814Z,99449.23
2019-03-25T04:50:33.096Z,99446.78
2019-03-25T04:53:02.901Z,99452.94
2019-03-25T04:55:30.293Z,99449.30
2019-03-25T04:57:57.724Z,99442.06
2019-03-25T05:00:37.348Z,99445.77
2019-03-25T05:03:04.720Z,99446.11
2019-03-25T05:05:31.993Z,99443.72
2019-03-25T05:07:59.360Z,99437.98
2019-03-25T05:10:26.687Z,99446.31
2019-03-25T05:12:54.230Z,99437.80
2019-03-25T05:15:21.811Z,99435.91
2019-03-25T05:17:49.179Z,99431.39
2019-03-25T05:20:16.677Z,99453.32
2019-03-25T05:22:44.080Z,99432.34
2019-03-25T05:25:11.356Z,99416.38
2019-03-25T05:27:38.715Z,99412.27
2019-03-25T05:30:06.289Z,99453.98
2019-03-25T05:32:33.575Z,99422.02
2019-03-25T05:35:00.860Z,99412.39
2019-03-25T05:37:28.259Z,99425.17
2019-03-25T05:39:55.615Z,99425.17
2019-03-25T05:42:23.022Z,99434.73
2019-03-25T05:44:50.389Z,99437.09
2019-03-25T05:47:17.679Z,99436.97
2019-03-25T05:49:50.784Z,99445.42
2019-03-25T05:52:18.050Z,99438.61
2019-03-25T05:54:45.328Z,99437.05
2019-03-25T05:57:12.819Z,99440.78
2019-03-25T05:59:40.213Z,99437.17
2019-03-25T06:02:07.595Z,99436.96
2019-03-25T06:04:38.734Z,99430.95
2019-03-25T06:07:06.387Z,99439.78
2019-03-25T06:09:33.653Z,99432.85
2019-03-25T06:12:01.657Z,99434.84
2019-03-25T06:14:29.152Z,99443.01
2019-03-25T06:16:56.523Z,99437.92
2019-03-25T06:19:23.936Z,99427.27
2019-03-25T06:21:51.241Z,99427.27
2019-03-25T06:24:18.520Z,99419.22
2019-03-25T06:26:46.175Z,99429.90
2019-03-25T06:29:13.429Z,99419.31
2019-03-25T06:31:40.837Z,99420.84
2019-03-25T06:34:09.624Z,99408.84
2019-03-25T06:36:37.646Z,99408.84
2019-03-25T06:39:05.497Z,99430.03
2019-03-25T06:41:34.015Z,99422.66
2019-03-25T06:44:03.734Z,99424.11
2019-03-25T06:46:34.317Z,99426.45
2019-03-25T06:49:01.723Z,99432.17
2019-03-25T06:51:29.109Z,99434.63
2019-03-25T06:53:57.975Z,99427.94
2019-03-25T06:56:25.230Z,99427.86
2019-03-25T06:58:52.644Z,99432.55
2019-03-25T07:01:19.933Z,99432.83
2019-03-25T07:03:47.344Z,99432.33
2019-03-25T07:06:14.879Z,99424.31
2019-03-25T07:08:42.220Z,99424.31
2019-03-25T07:11:09.495Z,99426.27
2019-03-25T07:13:36.906Z,99420.06
2019-03-25T07:16:04.291Z,99428.31
2019-03-25T07:18:31.676Z,99411.04
2019-03-25T07:20:59.055Z,99415.20
2019-03-25T07:23:26.446Z,99420.21
2019-03-25T07:25:53.941Z,99414.72
2019-03-25T07:28:21.809Z,99412.27
2019-03-25T07:30:49.344Z,99417.62
2019-03-25T07:33:16.676Z,99414.73
2019-03-25T07:35:44.100Z,99407.92
2019-03-25T07:38:14.349Z,99407.92
2019-03-25T07:40:42.055Z,99419.33
2019-03-25T07:43:09.380Z,99421.08
2019-03-25T07:45:36.761Z,99421.08
2019-03-25T07:48:04.373Z,99425.94
2019-03-25T07:50:31.711Z,99432.08
2019-03-25T07:52:59.269Z,99439.20
2019-03-25T07:55:26.700Z,99439.20
2019-03-25T07:57:57.120Z,99451.90
2019-03-25T08:00:24.638Z,99434.98
2019-03-25T08:02:51.990Z,99441.48
2019-03-25T08:05:19.381Z,99441.48
2019-03-25T08:07:46.790Z,99439.97
2019-03-25T08:10:20.756Z,99443.55
2019-03-25T08:12:48.151Z,99464.67
2019-03-25T08:15:15.802Z,99464.67
2019-03-25T08:17:43.479Z,99460.66
2019-03-25T08:20:11.104Z,99460.66
2019-03-25T08:22:38.421Z,99462.25
2019-03-25T08:25:06.321Z,99462.62
2019-03-25T08:27:33.743Z,99462.62
2019-03-25T08:30:01.323Z,99451.97
2019-03-25T08:32:28.609Z,99463.63
2019-03-25T08:34:55.902Z,99472.83
2019-03-25T08:37:24.529Z,99478.13
2019-03-25T08:39:51.885Z,99470.47
2019-03-25T08:42:19.192Z,99470.47
2019-03-25T08:44:46.789Z,99478.75
2019-03-25T08:47:14.196Z,99472.53
2019-03-25T08:49:41.611Z,99461.42
2019-03-25T08:52:09.102Z,99461.42
2019-03-25T08:54:37.899Z,99488.51
2019-03-25T08:57:05.589Z,99474.66
2019-03-25T08:59:32.886Z,99474.66
2019-03-25T09:02:00.406Z,99476.90
2019-03-25T09:04:27.820Z,99485.13
2019-03-25T09:06:55.195Z,99475.39
2019-03-25T09:09:23.099Z,99478.28
2019-03-25T09:11:51.653Z,99476.93
2019-03-25T09:14:19.405Z,99474.21
2019-03-25T09:16:46.647Z,99470.65
2019-03-25T09:19:14.107Z,99467.06
2019-03-25T09:21:41.441Z,99480.69
2019-03-25T09:24:08.838Z,99425.03
2019-03-25T09:26:36.537Z,99472.56
2019-03-25T09:29:03.856Z,99478.91
2019-03-25T09:31:36.659Z,99484.92
2019-03-25T09:34:00.833Z,99475.58
2019-03-25T09:36:28.324Z,99478.27
2019-03-25T09:38:55.851Z,99481.06
2019-03-25T09:41:23.172Z,99474.53
2019-03-25T09:43:50.660Z,99473.63
2019-03-25T09:46:18.082Z,99482.43
2019-03-25T09:48:45.355Z,99483.29
2019-03-25T09:51:12.764Z,99484.36
2019-03-25T09:53:48.278Z,99473.28
2019-03-25T09:56:15.929Z,99470.26
2019-03-25T09:58:43.334Z,99484.25
2019-03-25T10:01:10.755Z,99469.70
2019-03-25T10:03:38.154Z,99466.39
2019-03-25T10:06:05.451Z,99461.42
2019-03-25T10:08:32.983Z,99456.71
2019-03-25T10:11:00.705Z,99452.08
2019-03-25T10:13:28.126Z,99448.11
2019-03-25T10:15:55.795Z,99443.05
2019-03-25T10:18:23.222Z,99440.97
2019-03-25T10:20:50.591Z,99441.31
2019-03-25T10:23:17.962Z,99451.48
2019-03-25T10:25:45.414Z,99459.13
2019-03-25T10:28:12.846Z,99463.31
2019-03-25T10:30:40.230Z,99473.89
2019-03-25T10:33:16.472Z,99478.06
2019-03-25T10:35:43.937Z,99467.40
2019-03-25T10:38:19.436Z,99464.33
2019-03-25T10:40:40.622Z,99462.05
2019-03-25T10:43:08.287Z,99463.58
2019-03-25T10:45:37.474Z,99462.17
2019-03-25T10:48:04.769Z,99458.81
2019-03-25T10:50:32.224Z,99450.00
2019-03-25T10:52:59.630Z,99446.81
2019-03-25T10:55:26.920Z,99446.39
2019-03-25T10:57:54.339Z,99438.84
2019-03-25T11:00:22.127Z,99420.55
2019-03-25T11:02:49.615Z,99419.58
2019-03-25T11:05:20.365Z,99423.98
2019-03-25T11:07:47.877Z,99412.72
2019-03-25T11:10:15.640Z,99426.94
2019-03-25T11:12:44.389Z,99409.67
2019-03-25T11:15:11.816Z,99405.06
2019-03-25T11:17:39.160Z,99418.22
2019-03-25T11:20:07.151Z,99398.19
2019-03-25T11:22:34.487Z,99403.81
2019-03-25T11:25:02.040Z,99406.23
2019-03-25T11:27:30.129Z,99388.68
2019-03-25T11:29:57.811Z,99405.80
2019-03-25T11:32:27.116Z,99402.16
2019-03-25T11:34:55.099Z,99388.39
2019-03-25T11:37:23.247Z,99432.58
2019-03-25T11:39:50.802Z,99396.98
2019-03-25T11:42:19.054Z,99399.07
2019-03-25T11:44:46.914Z,99403.81
2019-03-25T11:47:14.171Z,99422.29
2019-03-25T11:49:41.835Z,99412.80
2019-03-25T11:52:11.441Z,99413.02
2019-03-25T11:54:39.203Z,99406.45
2019-03-25T11:57:09.437Z,99407.34
2019-03-25T11:59:36.956Z,99419.83
2019-03-25T12:02:17.468Z,99401.55
2019-03-25T12:04:43.225Z,99402.11
2019-03-25T12:07:10.511Z,99393.84
2019-03-25T12:09:37.831Z,99407.41
2019-03-25T12:12:05.550Z,99386.84
2019-03-25T12:14:33.079Z,99418.26
2019-03-25T12:17:00.849Z,99402.70
2019-03-25T12:19:28.219Z,99408.20
2019-03-25T12:21:56.044Z,99403.66
2019-03-25T12:24:24.133Z,99419.52
2019-03-25T12:26:51.612Z,99409.38
2019-03-25T12:29:29.691Z,99410.42
2019-03-25T12:31:48.732Z,99405.67
2019-03-25T12:34:16.145Z,99408.14
2019-03-25T12:36:43.710Z,99395.19
2019-03-25T12:39:11.221Z,99398.05
2019-03-25T12:41:38.596Z,99412.83
2019-03-25T12:44:06.118Z,99424.55
2019-03-25T12:46:34.664Z,99398.29
2019-03-25T12:49:05.332Z,99417.30
2019-03-25T12:51:32.850Z,99424.81
2019-03-25T12:54:00.930Z,99427.78
2019-03-25T12:56:28.398Z,99476.41
2019-03-25T12:58:55.878Z,99508.48
2019-03-25T13:01:25.621Z,99516.05
2019-03-25T13:03:54.322Z,99495.38
2019-03-25T13:06:21.618Z,99506.77
2019-03-25T13:08:50.824Z,99500.31
2019-03-25T13:11:18.208Z,99488.36
2019-03-25T13:13:45.650Z,99487.33
2019-03-25T13:16:13.126Z,99485.87
2019-03-25T13:18:42.439Z,99480.12
2019-03-25T13:21:09.744Z,99479.34
2019-03-25T13:23:37.156Z,99484.84
2019-03-25T13:26:04.809Z,99486.95
2019-03-25T13:28:32.355Z,99484.24
2019-03-25T13:30:59.921Z,99480.94
2019-03-25T13:33:29.390Z,99493.18
2019-03-25T13:35:56.682Z,99487.57
2019-03-25T13:38:27.356Z,99474.67
2019-03-25T13:40:56.822Z,99483.77
2019-03-25T13:43:27.092Z,99486.85
2019-03-25T13:46:05.531Z,99492.65
2019-03-25T13:48:30.370Z,99497.34
2019-03-25T13:50:57.626Z,99504.23
2019-03-25T13:53:25.764Z,99528.14
2019-03-25T13:55:53.857Z,99582.22
2019-03-25T13:58:21.466Z,99586.95
2019-03-25T14:00:49.211Z,99630.75
2019-03-25T14:03:17.748Z,99636.98
2019-03-25T14:05:45.274Z,99648.20
2019-03-25T14:08:12.867Z,99640.81
2019-03-25T14:10:40.212Z,99614.36
2019-03-25T14:13:07.486Z,99537.05
2019-03-25T14:15:34.900Z,99545.48
2019-03-25T14:18:02.190Z,99545.48
2019-03-25T14:20:29.843Z,99536.25
2019-03-25T14:22:57.100Z,99533.72
2019-03-25T14:25:24.374Z,99539.20
2019-03-25T14:27:52.016Z,99543.44
2019-03-25T14:30:20.504Z,99539.41
2019-03-25T14:32:47.921Z,99561.83
2019-03-25T14:35:17.876Z,99529.59
2019-03-25T14:37:45.366Z,99525.31
2019-03-25T14:40:12.893Z,99533.55
2019-03-25T14:42:40.665Z,99529.17
2019-03-25T14:45:08.127Z,99515.63
2019-03-25T14:47:36.502Z,99520.67
2019-03-25T14:50:04.806Z,99519.93
2019-03-25T14:52:32.078Z,99512.01
2019-03-25T14:54:59.461Z,99513.52
2019-03-25T14:57:26.988Z,99504.05
2019-03-25T14:59:57.724Z,99511.73
2019-03-25T15:02:25.012Z,99515.19
2019-03-25T15:04:52.315Z,99521.20
2019-03-25T15:07:19.708Z,99517.03
2019-03-25T15:09:47.022Z,99516.27
2019-03-25T15:12:14.337Z,99520.95
2019-03-25T15:14:42.282Z,99518.00
2019-03-25T15:17:09.768Z,99523.48
2019-03-25T15:19:37.096Z,99524.98
2019-03-25T15:22:04.483Z,99524.96
2019-03-25T15:24:31.777Z,99523.55
2019-03-25T15:26:59.265Z,99519.16
2019-03-25T15:29:26.727Z,99515.01
2019-03-25T15:31:54.006Z,99514.36
2019-03-25T15:34:21.310Z,99511.45
2019-03-25T15:36:49.706Z,99502.84
2019-03-25T15:39:17.072Z,99545.02
2019-03-25T15:41:44.634Z,99511.45
2019-03-25T15:44:11.982Z,99515.13
2019-03-25T15:46:40.058Z,99506.94
2019-03-25T15:49:07.433Z,99505.64
2019-03-25T15:51:35.093Z,99502.08
2019-03-25T15:54:02.375Z,99506.44
2019-03-25T15:56:29.828Z,99515.42
2019-03-25T15:58:57.650Z,99519.22
2019-03-25T16:01:25.450Z,99510.53
2019-03-25T16:03:52.914Z,99520.97
2019-03-25T16:06:22.284Z,99514.29
2019-03-25T16:08:49.750Z,99508.12
2019-03-25T16:11:17.111Z,99510.70
2019-03-25T16:13:44.451Z,99551.95
2019-03-25T16:16:12.148Z,99515.48
2019-03-25T16:18:40.376Z,99517.05
2019-03-25T16:21:08.654Z,99525.97
2019-03-25T16:23:38.075Z,99536.53
2019-03-25T16:26:07.801Z,99532.08
2019-03-25T16:28:35.056Z,99534.07
2019-03-25T16:31:02.487Z,99539.88
2019-03-25T16:33:29.746Z,99534.97
2019-03-25T16:35:57.080Z,99548.00
2019-03-25T16:38:25.022Z,99550.34
2019-03-25T16:40:52.730Z,99558.30
2019-03-25T16:43:20.043Z,99558.66
2019-03-25T16:45:47.542Z,99551.39
2019-03-25T16:48:14.932Z,99545.09
2019-03-25T16:50:42.370Z,99550.95
2019-03-25T16:53:10.619Z,99558.93
2019-03-25T16:55:38.152Z,99560.06
2019-03-25T16:58:05.599Z,99586.84
2019-03-25T17:00:33.308Z,99549.84
2019-03-25T17:03:00.612Z,99593.88
2019-03-25T17:05:28.312Z,99558.11
2019-03-25T17:07:55.806Z,99547.38
2019-03-25T17:10:23.115Z,99582.48
2019-03-25T17:12:50.551Z,99572.13
2019-03-25T17:15:17.972Z,99575.48
2019-03-25T17:17:46.407Z,99583.25
2019-03-25T17:20:17.059Z,99594.40
2019-03-25T17:22:48.484Z,99583.97
2019-03-25T17:25:18.919Z,99591.42
2019-03-25T17:27:48.738Z,99599.34
2019-03-25T17:30:16.123Z,99620.37
2019-03-25T17:32:43.649Z,99624.16
2019-03-25T17:35:11.060Z,99648.42
2019-03-25T17:37:41.134Z,99648.44
2019-03-25T17:40:08.474Z,99678.24
2019-03-25T17:42:35.943Z,99681.16
2019-03-25T17:45:03.871Z,99702.38
2019-03-25T17:47:31.894Z,99717.90
2019-03-25T17:49:59.190Z,99674.68
2019-03-25T17:52:26.611Z,99670.23
2019-03-25T17:54:54.054Z,99662.00
2019-03-25T17:57:21.355Z,99663.02
2019-03-25T17:59:48.685Z,99652.36
2019-03-25T18:02:16.131Z,99653.16
2019-03-25T18:04:43.541Z,99664.65
2019-03-25T18:07:11.005Z,99683.30
2019-03-25T18:09:41.037Z,99683.07
2019-03-25T18:12:08.466Z,99685.92
2019-03-25T18:14:35.847Z,99664.67
2019-03-25T18:17:03.284Z,99665.80
2019-03-25T18:19:30.714Z,99667.23
2019-03-25T18:21:58.106Z,99678.73
2019-03-25T18:24:25.645Z,99673.86
2019-03-25T18:26:53.009Z,99679.69
2019-03-25T18:29:20.401Z,99695.51
2019-03-25T18:31:48.537Z,99687.75
2019-03-25T18:34:15.962Z,99688.07
2019-03-25T18:36:43.301Z,99686.45
2019-03-25T18:39:10.575Z,99679.97
2019-03-25T18:41:37.877Z,99683.08
2019-03-25T18:44:05.256Z,99682.48
2019-03-25T18:46:33.478Z,99684.70
2019-03-25T18:49:00.933Z,99676.61
2019-03-25T18:51:31.024Z,99691.42
2019-03-25T18:53:58.392Z,99701.07
2019-03-25T18:56:25.678Z,99713.02
2019-03-25T18:58:53.108Z,99717.19
2019-03-25T19:01:21.400Z,99715.52
2019-03-25T19:03:48.730Z,99719.34
2019-03-25T19:06:16.366Z,99731.22
2019-03-25T19:08:43.913Z,99734.06
2019-03-25T19:11:11.208Z,99749.10
2019-03-25T19:13:38.612Z,99760.56
2019-03-25T19:16:05.990Z,99765.98
2019-03-25T19:18:33.310Z,99771.74
2019-03-25T19:21:00.821Z,99772.59
2019-03-25T19:23:28.499Z,99778.46
2019-03-25T19:25:55.786Z,99784.28
2019-03-25T19:28:23.320Z,99778.73
2019-03-25T19:30:50.646Z,99789.31
2019-03-25T19:33:17.939Z,99780.20
2019-03-25T19:35:45.310Z,99774.64
2019-03-25T19:38:12.739Z,99774.95
2019-03-25T19:40:40.352Z,99772.97
2019-03-25T19:43:07.662Z,99775.52
2019-03-25T19:45:35.776Z,99778.36
2019-03-25T19:48:03.224Z,99774.79
2019-03-25T19:50:30.599Z,99783.98
2019-03-25T19:52:58.085Z,99783.78
2019-03-25T19:55:25.583Z,99777.50
2019-03-25T19:57:52.887Z,99782.45
2019-03-25T20:00:34.737Z,99777.27
2019-03-25T20:03:02.201Z,99782.77
2019-03-25T20:05:29.929Z,99768.32
2019-03-25T20:07:57.523Z,99768.32
2019-03-25T20:10:29.531Z,99765.73
2019-03-25T20:12:57.427Z,99777.00
2019-03-25T20:15:25.131Z,99784.98
2019-03-25T20:17:52.728Z,99795.91
2019-03-25T20:20:20.210Z,99795.91
2019-03-25T20:22:47.985Z,99797.91
2019-03-25T20:25:15.395Z,99807.85
2019-03-25T20:27:42.774Z,99808.94
2019-03-25T20:30:10.235Z,99819.34
2019-03-25T20:32:37.819Z,99823.78
2019-03-25T20:35:05.449Z,99828.31
2019-03-25T20:37:33.983Z,99828.31
2019-03-25T20:40:04.934Z,99828.70
2019-03-25T20:42:32.224Z,99836.30
2019-03-25T20:44:59.528Z,99829.16
2019-03-25T20:47:26.859Z,99854.81
2019-03-25T20:49:54.661Z,99860.24
2019-03-25T20:52:24.366Z,99859.25
2019-03-25T20:54:54.050Z,99868.30
2019-03-25T20:57:21.336Z,99868.30
2019-03-25T20:59:49.145Z,99867.30
2019-03-25T21:02:16.647Z,99863.87
2019-03-25T21:04:44.519Z,99875.62
2019-03-25T21:07:11.774Z,99880.94
2019-03-25T21:09:39.324Z,99886.91
2019-03-25T21:12:06.806Z,99892.66
2019-03-25T21:14:34.174Z,99893.05
2019-03-25T21:17:01.436Z,99894.81
2019-03-25T21:19:29.259Z,99894.81
2019-03-25T21:21:59.306Z,99893.80
2019-03-25T21:24:26.604Z,99905.16
2019-03-25T21:26:56.244Z,99909.27
2019-03-25T21:29:24.467Z,99917.53
2019-03-25T21:31:52.652Z,99918.98
2019-03-25T21:34:21.798Z,99914.51
2019-03-25T21:36:49.141Z,99910.29
2019-03-25T21:39:16.577Z,99919.03
2019-03-25T21:41:44.071Z,99918.31
2019-03-25T21:44:11.489Z,99922.45
2019-03-25T21:46:39.361Z,99926.81
2019-03-25T21:49:09.069Z,99928.73
2019-03-25T21:51:38.724Z,99928.95
2019-03-25T21:54:06.148Z,99923.13
2019-03-25T21:56:33.539Z,99928.11
2019-03-25T21:59:01.066Z,99929.27
2019-03-25T22:01:29.141Z,99929.27
2019-03-25T22:04:00.036Z,99933.49
2019-03-25T22:06:27.355Z,99941.22
2019-03-25T22:08:54.745Z,99946.91
2019-03-25T22:11:22.850Z,99944.67
2019-03-25T22:13:50.135Z,99954.21
2019-03-25T22:16:17.418Z,99955.25
2019-03-25T22:18:44.961Z,99954.23
2019-03-25T22:21:12.565Z,99955.44
2019-03-25T22:23:39.938Z,99957.08
2019-03-25T22:26:07.218Z,99958.78
2019-03-25T22:28:35.964Z,99955.66
2019-03-25T22:31:03.659Z,99955.53
2019-03-25T22:33:30.992Z,99958.48
2019-03-25T22:35:58.484Z,99955.17
2019-03-25T22:38:25.967Z,99965.23
2019-03-25T22:40:53.592Z,99965.23
2019-03-25T22:43:21.474Z,99955.66
2019-03-25T22:45:48.887Z,99955.66
2019-03-25T22:48:16.647Z,99956.08
2019-03-25T22:50:44.312Z,99956.08
2019-03-25T22:53:12.190Z,99972.01
2019-03-25T22:55:39.722Z,99972.01
2019-03-25T22:58:09.568Z,99977.01
2019-03-25T23:00:47.258Z,99978.95
2019-03-25T23:03:15.068Z,99987.59
2019-03-25T23:05:42.410Z,99984.29
2019-03-25T23:08:09.732Z,99984.29
2019-03-25T23:10:37.241Z,99984.03
2019-03-25T23:13:04.543Z,99984.03
2019-03-25T23:15:31.930Z,99993.03
2019-03-25T23:17:59.554Z,99995.80
2019-03-25T23:20:33.584Z,100007.20
2019-03-25T23:23:07.026Z,99999.73
2019-03-25T23:25:34.414Z,99993.80
2019-03-25T23:28:01.819Z,99992.64
2019-03-25T23:30:29.122Z,100004.73
2019-03-25T23:32:56.594Z,100005.66
2019-03-25T23:35:23.836Z,100007.48
2019-03-25T23:37:51.136Z,100007.31
2019-03-25T23:40:18.401Z,100007.31
2019-03-25T23:42:46.029Z,99995.31
2019-03-25T23:45:13.760Z,100003.88
2019-03-25T23:47:41.144Z,100007.22
2019-03-25T23:50:08.462Z,100003.51
2019-03-25T23:52:36.213Z,100003.51
2019-03-25T23:55:03.920Z,100009.42
2019-03-25T23:57:31.567Z,100009.42
2019-03-25T23:59:58.847Z,100005.42
